Time;durP1;ratioP1;P1;durP2;ratioP2;P2;SDS_P1;SDS_P2;PMS_P1;PMS_P2;Temp;Humidity;BMP_temperature;BMP_pressure;BME280_temperature;BME280_humidity;BME280_pressure;Samples;Min_cycle;Max_cycle;Signal;HPM_P1;HPM_P2
2021/08/30 00:02:20;;;;;;;3.40;1.27;;;;;;;27.50;38.79;96541.13;5009756;28;20025;-37
2021/08/30 00:04:46;;;;;;;5.80;1.40;;;;;;;27.50;38.68;96533.22;5012865;28;20484;-32
2021/08/30 00:07:11;;;;;;;1.80;1.20;;;;;;;27.50;38.75;96535.88;5010301;28;20064;-35
2021/08/30 00:09:36;;;;;;;2.38;0.90;;;;;;;27.49;38.82;96536.78;5008445;28;20096;-36
2021/08/30 00:12:02;;;;;;;2.25;1.10;;;;;;;27.49;38.77;96531.53;5004555;28;20034;-31
2021/08/30 00:14:28;;;;;;;3.00;1.10;;;;;;;27.48;38.83;96535.09;5018756;28;20025;-34
2021/08/30 00:16:54;;;;;;;2.17;1.20;;;;;;;27.49;38.79;96528.88;5004094;28;20029;-29
2021/08/30 00:19:19;;;;;;;4.57;1.20;;;;;;;27.48;38.76;96527.19;5008654;28;20037;-34
2021/08/30 00:21:45;;;;;;;2.85;1.10;;;;;;;27.48;38.83;96529.84;5008991;28;20030;-31
2021/08/30 00:24:10;;;;;;;1.13;0.95;;;;;;;27.49;38.72;96526.25;5013259;28;20034;-33
2021/08/30 00:26:35;;;;;;;2.83;1.17;;;;;;;27.49;38.74;96521.00;5004815;28;20030;-32
2021/08/30 00:29:01;;;;;;;4.05;1.33;;;;;;;27.48;38.72;96524.56;5005648;28;20064;-30
2021/08/30 00:31:26;;;;;;;2.17;1.10;;;;;;;27.46;38.76;96524.66;5010401;28;20029;-30
2021/08/30 00:33:53;;;;;;;3.17;1.05;;;;;;;27.49;38.75;96523.63;5011863;28;20032;-31
2021/08/30 00:36:18;;;;;;;4.03;0.80;;;;;;;27.48;38.74;96519.31;5007575;28;20032;-34
2021/08/30 00:38:44;;;;;;;2.17;1.05;;;;;;;27.48;38.66;96516.69;5011924;28;20037;-34
2021/08/30 00:41:10;;;;;;;1.42;0.75;;;;;;;27.47;38.79;96515.00;5012301;28;20029;-35
2021/08/30 00:43:35;;;;;;;1.48;0.82;;;;;;;27.48;38.85;96516.69;5009201;28;20681;-30
2021/08/30 00:46:01;;;;;;;2.50;1.08;;;;;;;27.46;38.55;96518.59;5023743;28;20029;-31
2021/08/30 00:48:27;;;;;;;1.67;1.10;;;;;;;27.46;38.57;96519.41;5009972;28;20732;-32
2021/08/30 00:50:52;;;;;;;1.20;0.85;;;;;;;27.46;38.68;96521.22;5012700;28;20029;-33
2021/08/30 00:53:18;;;;;;;3.08;1.10;;;;;;;27.47;38.71;96522.88;4990014;28;20030;-30
2021/08/30 00:55:43;;;;;;;2.83;0.82;;;;;;;27.46;38.84;96516.78;5007764;28;20087;-36
2021/08/30 00:58:08;;;;;;;2.08;1.20;;;;;;;27.45;38.75;96522.13;5006786;28;20575;-32
2021/08/30 01:00:34;;;;;;;3.55;1.05;;;;;;;27.46;38.82;96521.22;5008436;28;20091;-35
2021/08/30 01:02:59;;;;;;;3.58;0.90;;;;;;;27.46;38.68;96521.22;5011556;28;20110;-35
2021/08/30 01:05:25;;;;;;;0.95;0.82;;;;;;;27.46;38.73;96515.94;5012795;28;23086;-34
2021/08/30 01:08:11;;;;;;;1.30;0.80;;;;;;;27.46;38.75;96521.22;5015051;28;20067;-31
2021/08/30 01:11:10;;;;;;;1.58;0.90;;;;;;;27.46;38.76;96518.59;4998147;28;20905;-36
2021/08/30 01:13:42;;;;;;;4.47;1.00;;;;;;;27.45;38.80;96514.22;4996507;28;20049;-30
2021/08/30 01:16:10;;;;;;;2.28;1.20;;;;;;;27.45;38.62;96503.72;5008168;28;20037;-29
2021/08/30 01:18:36;;;;;;;3.08;0.80;;;;;;;27.44;38.75;96508.16;5029782;28;20584;-32
2021/08/30 01:21:19;;;;;;;2.88;1.00;;;;;;;27.45;38.78;96503.72;5010208;28;20034;-33
2021/08/30 01:24:03;;;;;;;2.58;0.73;;;;;;;27.44;38.83;96508.16;4988798;28;20029;-35
2021/08/30 01:26:30;;;;;;;2.47;0.80;;;;;;;27.43;38.71;96502.97;5026673;28;20023;-33
2021/08/30 01:29:04;;;;;;;1.83;0.80;;;;;;;27.44;38.74;96508.16;5006854;28;20029;-33
2021/08/30 01:32:12;;;;;;;3.03;1.10;;;;;;;27.45;38.80;96498.44;5007813;28;20125;-33
2021/08/30 01:34:40;;;;;;;1.48;0.98;;;;;;;27.44;38.82;96486.25;5015624;28;20060;-31
2021/08/30 01:37:06;;;;;;;7.63;0.95;;;;;;;27.43;38.79;96489.81;4990991;28;20619;-37
2021/08/30 01:39:31;;;;;;;0.85;0.82;;;;;;;27.44;38.68;96486.25;5014161;28;20033;-31
2021/08/30 01:42:00;;;;;;;2.75;1.00;;;;;;;27.44;38.66;96486.25;5010551;28;20022;-31
2021/08/30 01:44:26;;;;;;;4.43;0.70;;;;;;;27.43;38.74;96476.66;4988444;28;20025;-31
2021/08/30 01:46:51;;;;;;;1.67;0.90;;;;;;;27.45;38.68;96490.56;5007297;28;20021;-30
2021/08/30 01:49:16;;;;;;;0.93;0.70;;;;;;;27.44;38.59;96486.25;5006881;28;20069;-34
2021/08/30 01:51:42;;;;;;;1.80;0.90;;;;;;;27.44;38.85;96494.13;5010607;28;20472;-34
2021/08/30 01:54:07;;;;;;;2.47;0.80;;;;;;;27.44;38.77;96491.50;4991232;28;20036;-31
2021/08/30 01:56:33;;;;;;;0.90;0.60;;;;;;;27.44;38.68;96494.13;5010480;28;20037;-32
2021/08/30 02:01:43;;;;;;;2.22;0.77;;;;;;;27.44;38.70;96486.25;4989356;28;20123;-34
2021/08/30 02:04:08;;;;;;;4.25;1.08;;;;;;;27.44;38.65;96486.25;5007792;28;20450;-37
2021/08/30 02:06:34;;;;;;;0.80;0.70;;;;;;;27.44;38.87;96494.13;5005946;28;20274;-30
2021/08/30 02:08:59;;;;;;;1.58;0.90;;;;;;;27.43;38.69;96495.94;5009487;28;20101;-33
2021/08/30 02:11:29;;;;;;;1.38;0.77;;;;;;;27.44;38.62;96486.25;5013150;28;20041;-34
2021/08/30 02:13:57;;;;;;;1.87;1.00;;;;;;;27.44;38.66;96487.09;5008595;28;20033;-33
2021/08/30 02:16:22;;;;;;;1.35;0.80;;;;;;;27.44;38.70;96489.72;5009488;28;20060;-34
2021/08/30 02:18:54;;;;;;;2.38;0.85;;;;;;;27.44;38.66;96491.50;5009004;28;20499;-37
2021/08/30 02:21:38;;;;;;;2.22;0.77;;;;;;;27.43;38.71;96493.31;5012092;28;20037;-33
2021/08/30 02:24:15;;;;;;;1.13;0.63;;;;;;;27.41;38.68;96483.81;5008543;28;20061;-30
2021/08/30 02:27:09;;;;;;;1.73;0.70;;;;;;;27.44;38.87;96488.88;5003766;28;20069;-32
2021/08/30 02:29:38;;;;;;;1.20;0.90;;;;;;;27.43;38.71;96489.81;5000097;28;20857;-34
2021/08/30 02:32:04;;;;;;;1.45;1.02;;;;;;;27.43;38.77;96489.81;5013637;28;20324;-33
2021/08/30 02:34:32;;;;;;;1.70;0.70;;;;;;;27.43;38.65;96495.09;4990848;28;20116;-37
2021/08/30 02:36:58;;;;;;;1.67;0.70;;;;;;;27.42;38.73;96488.13;4997526;28;20427;-31
2021/08/30 02:39:23;;;;;;;1.45;0.82;;;;;;;27.42;38.55;96485.50;5005397;28;20046;-30
2021/08/30 02:41:48;;;;;;;1.15;0.70;;;;;;;27.43;38.72;96487.19;5007467;28;20374;-31
2021/08/30 02:44:14;;;;;;;1.45;0.80;;;;;;;27.42;38.65;96488.13;5006003;28;20132;-31
2021/08/30 02:46:39;;;;;;;0.57;0.57;;;;;;;27.41;38.62;96481.19;5029322;28;20407;-32
2021/08/30 02:49:04;;;;;;;1.08;0.82;;;;;;;27.43;38.67;96479.28;5011865;28;20475;-34
2021/08/30 02:51:30;;;;;;;4.90;1.30;;;;;;;27.42;38.63;96477.63;4996410;28;20056;-33
2021/08/30 02:53:55;;;;;;;3.47;0.88;;;;;;;27.42;38.43;96477.63;5006603;28;20021;-31
2021/08/30 02:56:21;;;;;;;1.00;0.90;;;;;;;27.42;38.65;96472.34;5007858;28;20045;-35
2021/08/30 02:58:46;;;;;;;2.92;0.73;;;;;;;27.40;38.85;96477.72;5004376;28;20029;-34
2021/08/30 03:01:12;;;;;;;1.10;0.73;;;;;;;27.41;38.72;96481.19;5010854;28;20033;-35
2021/08/30 03:03:37;;;;;;;1.90;0.80;;;;;;;27.42;38.82;96480.25;5007594;28;20124;-37
2021/08/30 03:06:02;;;;;;;1.65;0.80;;;;;;;27.41;38.68;96476.75;5008882;28;20459;-31
2021/08/30 03:08:28;;;;;;;1.27;0.77;;;;;;;27.42;38.89;96480.25;4990952;28;20025;-33
2021/08/30 03:10:53;;;;;;;1.17;0.88;;;;;;;27.40;38.67;96475.06;5013792;28;20029;-32
2021/08/30 03:13:18;;;;;;;2.40;0.80;;;;;;;27.41;38.78;96475.94;5004107;28;20464;-30
2021/08/30 03:15:44;;;;;;;1.25;0.60;;;;;;;27.40;38.69;96475.06;5009593;28;20041;-30
2021/08/30 03:18:11;;;;;;;0.80;0.68;;;;;;;27.41;38.74;96475.94;5010016;28;20780;-31
2021/08/30 03:20:37;;;;;;;1.92;0.70;;;;;;;27.40;38.81;96469.81;5006638;28;20083;-36
2021/08/30 03:23:02;;;;;;;1.08;0.80;;;;;;;27.40;38.67;96475.06;4989295;28;20029;-32
2021/08/30 03:25:31;;;;;;;2.03;0.80;;;;;;;27.39;38.68;96468.97;5006430;28;20022;-34
2021/08/30 03:27:56;;;;;;;1.40;0.93;;;;;;;27.42;39.03;96472.34;5009702;28;20115;-34
2021/08/30 03:30:22;;;;;;;2.40;1.00;;;;;;;27.39;38.60;96463.69;5015253;28;20033;-34
2021/08/30 03:32:47;;;;;;;0.95;0.70;;;;;;;27.41;38.70;96471.50;5014497;28;20033;-32
2021/08/30 03:35:13;;;;;;;0.80;0.70;;;;;;;27.41;38.87;96463.59;5013341;28;20087;-35
2021/08/30 03:37:42;;;;;;;1.75;0.82;;;;;;;27.41;38.71;96466.22;5013027;28;20037;-32
2021/08/30 03:40:08;;;;;;;0.90;0.60;;;;;;;27.41;38.73;96465.41;4994547;28;20060;-34
2021/08/30 03:42:34;;;;;;;1.95;0.73;;;;;;;27.42;38.64;96467.91;5006959;28;20565;-32
2021/08/30 03:45:00;;;;;;;1.17;0.70;;;;;;;27.41;38.71;96460.16;5010047;28;20489;-35
2021/08/30 03:47:25;;;;;;;1.08;0.80;;;;;;;27.42;38.70;96456.56;5014691;28;20025;-34
2021/08/30 03:49:51;;;;;;;1.45;0.82;;;;;;;27.41;38.79;96466.22;5013535;28;20368;-34
2021/08/30 03:52:16;;;;;;;1.95;0.70;;;;;;;27.41;38.74;96460.16;4998377;28;20079;-33
2021/08/30 03:54:42;;;;;;;1.90;0.90;;;;;;;27.42;38.65;96467.09;5003218;28;20921;-33
2021/08/30 03:57:07;;;;;;;1.60;0.90;;;;;;;27.41;38.72;96466.22;5005813;28;20033;-31
2021/08/30 03:59:35;;;;;;;0.70;0.68;;;;;;;27.39;38.72;96460.25;5002722;28;20026;-35
2021/08/30 04:02:00;;;;;;;1.27;0.88;;;;;;;27.41;38.83;96462.78;5004237;28;20084;-30
2021/08/30 04:04:28;;;;;;;2.42;0.68;;;;;;;27.41;38.78;96465.41;5015676;28;20021;-28
2021/08/30 04:06:54;;;;;;;1.00;0.90;;;;;;;27.42;38.69;96464.47;5013187;28;20029;-37
2021/08/30 04:09:20;;;;;;;1.60;1.00;;;;;;;27.39;38.70;96458.44;5015074;28;20040;-31
2021/08/30 04:11:47;;;;;;;1.52;0.60;;;;;;;27.39;38.82;96468.97;5010777;28;20029;-33
2021/08/30 04:14:12;;;;;;;0.80;0.80;;;;;;;27.39;38.72;96463.69;5010241;28;20061;-34
2021/08/30 04:16:39;;;;;;;2.88;1.00;;;;;;;27.41;38.70;96470.66;4994379;28;20063;-36
2021/08/30 04:19:04;;;;;;;4.53;1.00;;;;;;;27.39;38.70;96462.88;5015510;28;20076;-38
2021/08/30 04:21:30;;;;;;;1.88;0.98;;;;;;;27.38;38.64;96462.00;5014340;28;20848;-33
2021/08/30 04:23:55;;;;;;;3.60;0.80;;;;;;;27.38;38.79;96458.53;5009370;28;20041;-31
2021/08/30 04:26:21;;;;;;;1.67;0.85;;;;;;;27.38;38.74;96467.28;5006571;28;20104;-32
2021/08/30 04:28:46;;;;;;;0.80;0.80;;;;;;;27.38;38.79;96459.38;5010698;28;20029;-32
2021/08/30 04:31:11;;;;;;;1.10;1.00;;;;;;;27.39;38.83;96466.31;5009941;28;20029;-34
2021/08/30 04:33:37;;;;;;;0.80;0.80;;;;;;;27.39;38.72;96463.69;5008626;28;20025;-32
2021/08/30 04:36:03;;;;;;;0.98;0.80;;;;;;;27.38;38.76;96462.00;5010071;28;20103;-36
2021/08/30 04:38:28;;;;;;;2.53;0.90;;;;;;;27.39;38.78;96468.13;5003994;28;20029;-35
2021/08/30 04:40:53;;;;;;;0.77;0.70;;;;;;;27.38;38.66;96469.91;5009585;28;20029;-31
2021/08/30 04:43:19;;;;;;;1.90;0.80;;;;;;;27.39;38.81;96474.22;5012698;28;20725;-36
2021/08/30 04:45:44;;;;;;;1.52;0.77;;;;;;;27.38;38.68;96467.28;5009727;28;20415;-36
2021/08/30 04:48:10;;;;;;;1.20;0.60;;;;;;;27.38;38.78;96472.53;5015764;28;20533;-34
2021/08/30 04:50:35;;;;;;;0.77;0.70;;;;;;;27.40;38.73;96475.06;5011936;28;20574;-31
2021/08/30 04:53:00;;;;;;;0.90;0.90;;;;;;;27.38;38.71;96472.53;5007988;28;20029;-32
2021/08/30 04:55:26;;;;;;;3.58;0.88;;;;;;;27.38;38.78;96477.81;5014515;28;20537;-33
2021/08/30 04:57:51;;;;;;;1.17;0.77;;;;;;;27.39;38.77;96476.03;5011053;28;20216;-32
2021/08/30 05:00:17;;;;;;;1.25;1.15;;;;;;;27.39;38.64;96474.22;5011463;28;20554;-36
2021/08/30 05:02:42;;;;;;;2.15;1.00;;;;;;;27.38;38.74;96477.81;5006294;28;20819;-33
2021/08/30 05:05:08;;;;;;;1.25;0.90;;;;;;;27.38;38.64;96482.22;5013397;28;20500;-34
2021/08/30 05:07:33;;;;;;;0.90;0.90;;;;;;;27.38;38.61;96477.81;5014600;28;20055;-33
2021/08/30 05:09:59;;;;;;;1.25;0.80;;;;;;;27.38;38.78;96480.44;5010476;28;20029;-31
2021/08/30 05:12:27;;;;;;;0.75;0.75;;;;;;;27.35;38.73;96477.16;5005633;28;20761;-33
2021/08/30 05:14:53;;;;;;;3.83;0.90;;;;;;;27.38;38.62;96477.81;5003143;28;20052;-34
2021/08/30 05:17:19;;;;;;;1.20;1.10;;;;;;;27.38;38.78;96483.06;5010009;28;20029;-30
2021/08/30 05:19:44;;;;;;;2.33;0.95;;;;;;;27.37;38.72;96486.66;5005782;28;20506;-32
2021/08/30 05:22:10;;;;;;;2.55;1.20;;;;;;;27.38;38.56;96483.06;5011948;28;20025;-33
2021/08/30 05:24:36;;;;;;;1.77;1.10;;;;;;;27.38;38.65;96487.47;5010020;28;20021;-30
2021/08/30 05:27:01;;;;;;;2.88;1.13;;;;;;;27.36;38.73;96484.09;5008562;28;20132;-31
2021/08/30 05:29:26;;;;;;;1.58;1.20;;;;;;;27.37;38.78;96486.66;5010406;28;20036;-37
2021/08/30 05:31:52;;;;;;;1.40;1.00;;;;;;;27.36;38.70;96484.97;5007391;28;20029;-34
2021/08/30 05:34:17;;;;;;;1.42;1.13;;;;;;;27.37;38.68;96486.66;5009994;28;20033;-32
2021/08/30 05:36:43;;;;;;;4.18;1.88;;;;;;;27.37;38.62;96493.69;5008712;28;20025;-35
2021/08/30 05:39:08;;;;;;;2.30;1.85;;;;;;;27.37;38.53;96485.78;5009146;28;20080;-32
2021/08/30 05:41:33;;;;;;;3.10;2.15;;;;;;;27.35;38.61;96483.25;5013250;28;20790;-31
2021/08/30 05:43:59;;;;;;;2.20;1.90;;;;;;;27.36;38.49;96489.38;5010819;28;20040;-38
2021/08/30 05:46:24;;;;;;;2.20;1.70;;;;;;;27.33;38.44;96485.16;5008477;28;20025;-37
2021/08/30 05:48:50;;;;;;;1.55;1.40;;;;;;;27.35;38.55;96487.69;5012719;28;20037;-33
2021/08/30 05:51:15;;;;;;;1.55;1.30;;;;;;;27.28;38.83;96476.72;5007434;28;20037;-31
2021/08/30 05:53:41;;;;;;;1.38;1.15;;;;;;;27.33;38.68;96490.41;5012122;28;20148;-30
2021/08/30 05:56:07;;;;;;;1.17;1.08;;;;;;;27.33;38.69;96487.78;5008366;28;20033;-32
2021/08/30 05:58:33;;;;;;;1.50;1.20;;;;;;;27.34;38.77;96493.91;5005808;28;20079;-33
2021/08/30 06:00:58;;;;;;;5.75;1.38;;;;;;;27.33;38.67;96502.72;5007951;28;20025;-31
2021/08/30 06:03:24;;;;;;;1.48;1.10;;;;;;;27.31;38.62;96500.19;5004823;28;20100;-31
2021/08/30 06:05:49;;;;;;;1.88;0.98;;;;;;;27.34;38.72;96501.78;5012401;28;20040;-32
2021/08/30 06:08:14;;;;;;;2.53;1.30;;;;;;;27.33;38.61;96503.56;5003929;28;20032;-33
2021/08/30 06:10:40;;;;;;;2.17;1.20;;;;;;;27.33;38.64;96500.94;5004524;28;20025;-32
2021/08/30 06:13:05;;;;;;;2.25;1.33;;;;;;;27.33;38.57;96495.69;5009473;28;20048;-33
2021/08/30 06:15:31;;;;;;;3.25;1.40;;;;;;;27.31;38.76;96492.28;5007653;28;20378;-34
2021/08/30 06:17:56;;;;;;;1.20;1.10;;;;;;;27.34;38.65;96491.28;5001669;28;20037;-33
2021/08/30 06:20:22;;;;;;;3.10;1.27;;;;;;;27.35;38.71;96499.03;5002829;28;20041;-32
2021/08/30 06:22:47;;;;;;;2.88;1.30;;;;;;;27.35;38.76;96493.78;5010886;28;20056;-33
2021/08/30 06:25:13;;;;;;;1.50;1.20;;;;;;;27.35;38.68;96503.47;5003161;28;20030;-38
2021/08/30 06:27:38;;;;;;;1.23;1.10;;;;;;;27.35;38.65;96498.22;5006258;28;20200;-33
2021/08/30 06:30:04;;;;;;;2.42;1.27;;;;;;;27.37;38.62;96505.06;5003579;28;20464;-32
2021/08/30 06:32:29;;;;;;;1.75;1.20;;;;;;;27.35;38.60;96504.31;5001970;28;20040;-35
2021/08/30 06:34:55;;;;;;;1.80;1.48;;;;;;;27.35;38.73;96499.03;5011044;28;20064;-34
2021/08/30 06:37:20;;;;;;;4.00;1.52;;;;;;;27.35;38.75;96496.41;5006338;28;20160;-32
2021/08/30 06:39:46;;;;;;;8.77;1.40;;;;;;;27.36;38.70;96502.53;5006574;28;20076;-31
2021/08/30 06:42:11;;;;;;;6.57;1.63;;;;;;;27.36;38.57;96498.13;5007380;28;20026;-33
2021/08/30 06:44:37;;;;;;;8.57;1.73;;;;;;;27.35;38.53;96503.47;5003190;28;20398;-33
2021/08/30 06:47:02;;;;;;;16.55;1.92;;;;;;;27.35;38.67;96504.31;5006447;28;20041;-34
2021/08/30 06:49:27;;;;;;;4.68;1.90;;;;;;;27.36;38.71;96510.44;5002462;28;20033;-31
2021/08/30 06:51:53;;;;;;;6.10;2.17;;;;;;;27.36;38.69;96510.44;5002719;28;20026;-30
2021/08/30 06:54:18;;;;;;;2.83;2.00;;;;;;;27.36;38.81;96505.16;5006382;28;20036;-32
2021/08/30 06:56:44;;;;;;;7.35;2.45;;;;;;;27.35;38.67;96514.00;5003818;28;20026;-31
2021/08/30 06:59:09;;;;;;;5.50;2.13;;;;;;;27.35;38.67;96512.19;4999939;28;20110;-35
2021/08/30 07:01:35;;;;;;;7.82;2.42;;;;;;;27.36;38.74;96510.44;5004490;28;20035;-30
2021/08/30 07:04:01;;;;;;;6.15;2.50;;;;;;;27.31;38.60;96513.34;5005370;28;20030;-32
2021/08/30 07:06:26;;;;;;;5.93;2.50;;;;;;;27.35;38.70;96514.00;5005671;28;20045;-31
2021/08/30 07:08:52;;;;;;;8.10;2.40;;;;;;;27.34;38.70;96513.16;5004501;28;20033;-30
2021/08/30 07:11:17;;;;;;;6.68;2.45;;;;;;;27.36;38.58;96516.53;5005056;28;20441;-36
2021/08/30 07:13:43;;;;;;;4.57;2.50;;;;;;;27.37;38.51;96512.97;5006470;28;20029;-34
2021/08/30 07:16:08;;;;;;;4.75;2.58;;;;;;;27.37;38.63;96518.22;5007364;28;20037;-33
2021/08/30 07:18:33;;;;;;;6.88;2.78;;;;;;;27.38;38.49;96519.03;5002084;28;20736;-31
2021/08/30 07:20:59;;;;;;;6.35;2.90;;;;;;;27.38;38.54;96513.78;5007275;28;20037;-33
2021/08/30 07:23:24;;;;;;;6.47;2.75;;;;;;;27.38;38.60;96514.63;5007494;28;20081;-33
2021/08/30 07:25:50;;;;;;;6.13;2.80;;;;;;;27.38;38.53;96517.28;5009867;28;20455;-34
2021/08/30 07:28:16;;;;;;;6.60;3.25;;;;;;;27.39;38.59;96516.31;5009146;28;20033;-31
2021/08/30 07:30:41;;;;;;;7.95;3.47;;;;;;;27.39;38.40;96518.13;5003379;28;20037;-32
2021/08/30 07:33:06;;;;;;;5.93;3.30;;;;;;;27.36;38.59;96516.53;5021797;28;20632;-35
2021/08/30 07:35:32;;;;;;;5.43;3.08;;;;;;;27.38;38.54;96519.91;4994460;28;20423;-29
2021/08/30 07:37:57;;;;;;;7.75;2.90;;;;;;;27.37;38.54;96515.59;5005017;28;20672;-32
2021/08/30 07:40:23;;;;;;;5.88;2.97;;;;;;;27.38;38.62;96519.91;5004925;28;20284;-33
2021/08/30 07:42:48;;;;;;;8.15;3.25;;;;;;;27.39;38.50;96515.50;5004945;28;20021;-38
2021/08/30 07:45:14;;;;;;;5.65;3.05;;;;;;;27.39;38.73;96520.75;5005434;28;20037;-33
2021/08/30 07:47:42;;;;;;;6.55;3.17;;;;;;;27.37;38.61;96522.63;5005098;28;20033;-29
2021/08/30 07:50:09;;;;;;;6.65;2.83;;;;;;;27.37;38.59;96520.84;5004509;28;20037;-29
2021/08/30 07:52:34;;;;;;;6.00;2.80;;;;;;;27.38;38.67;96530.44;5005756;28;20040;-30
2021/08/30 07:55:00;;;;;;;6.53;3.10;;;;;;;27.39;38.52;96531.28;5006041;28;20720;-34
2021/08/30 07:57:25;;;;;;;5.35;2.60;;;;;;;27.38;38.66;96535.69;5003939;28;20075;-34
2021/08/30 07:59:51;;;;;;;7.03;3.10;;;;;;;27.38;38.51;96543.59;5003540;28;20037;-30
2021/08/30 08:02:16;;;;;;;11.48;3.30;;;;;;;27.38;38.70;96538.31;5008621;28;20060;-38
2021/08/30 08:04:42;;;;;;;9.07;3.45;;;;;;;27.38;38.74;96542.72;5009717;28;20030;-33
2021/08/30 08:07:07;;;;;;;4.25;2.92;;;;;;;27.39;38.80;96547.91;5005721;28;20511;-30
2021/08/30 08:09:33;;;;;;;9.25;3.22;;;;;;;27.38;38.78;96546.22;5004397;28;20038;-37
2021/08/30 08:11:58;;;;;;;6.53;3.08;;;;;;;27.39;38.88;96547.06;5005161;28;20349;-35
2021/08/30 08:14:23;;;;;;;7.38;3.20;;;;;;;27.38;38.91;96554.13;5006780;28;20033;-35
2021/08/30 08:16:49;;;;;;;7.45;3.65;;;;;;;27.38;38.81;96556.75;5008601;28;21282;-38
2021/08/30 08:19:15;;;;;;;7.45;3.92;;;;;;;27.39;38.96;96554.97;4993038;28;20032;-29
2021/08/30 08:21:41;;;;;;;9.27;3.92;;;;;;;27.40;38.92;96556.66;5009357;28;20083;-27
2021/08/30 08:24:06;;;;;;;6.60;4.03;;;;;;;27.39;38.93;96561.06;5008327;28;20103;-30
2021/08/30 08:26:32;;;;;;;9.30;4.55;;;;;;;27.41;38.94;96560.97;5007280;28;20450;-29
2021/08/30 08:28:58;;;;;;;6.43;3.88;;;;;;;27.40;38.91;96559.28;5009828;28;20356;-35
2021/08/30 08:31:23;;;;;;;7.50;3.90;;;;;;;27.42;39.09;96561.81;5009878;28;20045;-33
2021/08/30 08:33:49;;;;;;;6.13;3.70;;;;;;;27.41;38.96;96555.69;5011108;28;20511;-32
2021/08/30 08:36:16;;;;;;;9.15;4.28;;;;;;;27.42;39.04;96564.44;5017125;28;20555;-29
2021/08/30 08:38:41;;;;;;;6.82;4.20;;;;;;;27.42;39.02;96567.09;5009716;28;20045;-34
2021/08/30 08:41:07;;;;;;;8.02;3.67;;;;;;;27.40;39.04;96564.53;5009217;28;20036;-32
2021/08/30 08:43:33;;;;;;;8.43;4.30;;;;;;;27.43;38.86;96563.50;5012019;28;20029;-29
2021/08/30 08:45:58;;;;;;;10.93;4.65;;;;;;;27.42;39.05;96567.91;5012248;28;20643;-30
2021/08/30 08:48:24;;;;;;;9.80;4.10;;;;;;;27.42;39.03;96573.16;5015403;28;20026;-33
2021/08/30 08:50:49;;;;;;;9.85;4.82;;;;;;;27.42;39.03;96575.81;5016189;28;20029;-32
2021/08/30 08:53:15;;;;;;;16.20;4.32;;;;;;;27.42;38.99;96575.81;5010727;28;20133;-31
2021/08/30 08:55:40;;;;;;;16.67;5.38;;;;;;;27.44;38.97;96580.97;5017013;28;20041;-29
2021/08/30 08:58:15;;;;;;;13.90;5.00;;;;;;;27.44;39.07;96575.72;5012824;28;20041;-29
2021/08/30 09:00:42;;;;;;;15.73;5.38;;;;;;;27.43;39.10;96582.78;5013823;28;20881;-37
2021/08/30 09:03:18;;;;;;;14.95;5.72;;;;;;;27.44;39.09;96575.72;5015543;28;20104;-32
2021/08/30 09:05:44;;;;;;;23.27;4.75;;;;;;;27.45;38.78;96580.03;5010997;28;20037;-28
2021/08/30 09:08:28;;;;;;;15.38;4.72;;;;;;;27.45;38.98;96577.38;5008737;28;20037;-29
2021/08/30 09:10:54;;;;;;;12.55;4.47;;;;;;;27.46;39.08;96576.47;5014651;28;20029;-29
2021/08/30 09:13:25;;;;;;;11.50;4.55;;;;;;;27.46;39.14;96581.75;5013137;28;20036;-35
2021/08/30 09:15:50;;;;;;;11.48;4.38;;;;;;;27.47;39.20;96588.69;5013916;28;20392;-33
2021/08/30 09:18:15;;;;;;;10.55;4.70;;;;;;;27.46;39.10;96587.81;5011683;28;20040;-35
2021/08/30 09:20:41;;;;;;;9.35;4.57;;;;;;;27.47;39.27;96594.81;5018197;28;20044;-32
2021/08/30 09:23:15;;;;;;;20.58;4.57;;;;;;;27.46;39.05;96592.25;5013996;28;20032;-36
2021/08/30 09:25:40;;;;;;;10.93;4.18;;;;;;;27.48;39.22;96593.00;5013486;28;20220;-32
2021/08/30 09:28:06;;;;;;;17.38;4.07;;;;;;;27.47;39.30;96594.81;5013896;28;20034;-31
2021/08/30 09:30:31;;;;;;;9.75;4.20;;;;;;;27.47;39.15;96596.56;5013188;28;20026;-34
2021/08/30 09:32:58;;;;;;;10.32;3.78;;;;;;;27.48;39.16;96596.47;5013259;28;20041;-29
2021/08/30 09:35:24;;;;;;;10.77;3.80;;;;;;;27.47;39.15;96596.56;5014126;28;20684;-31
2021/08/30 09:37:49;;;;;;;10.85;4.10;;;;;;;27.49;39.18;96592.03;5013318;28;20026;-35
2021/08/30 09:40:17;;;;;;;8.52;3.88;;;;;;;27.49;39.25;96589.41;5013856;28;20038;-36
2021/08/30 09:42:49;;;;;;;10.98;4.15;;;;;;;27.49;39.24;96592.03;5014967;28;20030;-34
2021/08/30 09:45:16;;;;;;;11.13;3.97;;;;;;;27.49;39.20;96594.69;5016424;28;20079;-34
2021/08/30 09:48:04;;;;;;;7.57;3.65;;;;;;;27.48;39.37;96593.84;5017544;28;20037;-30
2021/08/30 09:50:30;;;;;;;9.85;3.60;;;;;;;27.49;39.05;96590.28;5015208;28;20033;-32
2021/08/30 09:52:57;;;;;;;7.85;3.60;;;;;;;27.50;39.16;96596.38;5014924;28;20018;-30
2021/08/30 09:55:22;;;;;;;10.45;4.18;;;;;;;27.49;39.24;96584.16;5015093;28;20107;-33
2021/08/30 09:57:51;;;;;;;9.63;3.53;;;;;;;27.49;39.22;96584.16;5013909;28;20028;-33
2021/08/30 10:00:17;;;;;;;10.68;3.47;;;;;;;27.49;39.08;96584.16;5012170;28;20556;-31
2021/08/30 10:02:45;;;;;;;7.43;3.88;;;;;;;27.48;39.21;96582.47;5015370;28;20036;-34
2021/08/30 10:05:11;;;;;;;8.80;3.55;;;;;;;27.50;39.31;96580.59;5015262;28;20121;-32
2021/08/30 10:07:37;;;;;;;8.57;3.67;;;;;;;27.51;39.09;96587.53;5000113;28;20025;-30
2021/08/30 10:10:02;;;;;;;8.15;3.50;;;;;;;27.50;39.20;96575.34;5011084;28;20021;-32
2021/08/30 10:12:28;;;;;;;6.93;3.40;;;;;;;27.51;39.08;96583.09;5011403;28;20744;-29
2021/08/30 10:14:53;;;;;;;9.45;3.60;;;;;;;27.51;39.03;96588.38;5012310;28;20029;-35
2021/08/30 10:17:19;;;;;;;10.10;6.90;;;;;;;27.46;38.39;96587.00;5012592;28;20033;-30
2021/08/30 10:19:58;;;;;;;10.68;6.97;;;;;;;27.34;38.30;96583.38;5014747;28;20021;-31
2021/08/30 10:22:23;;;;;;;8.75;7.07;;;;;;;27.22;38.26;96583.19;5013236;28;20110;-33
2021/08/30 10:24:49;;;;;;;8.68;7.70;;;;;;;27.07;38.31;96589.38;5014081;28;20029;-36
2021/08/30 10:27:14;;;;;;;8.23;6.72;;;;;;;26.93;38.62;96592.84;5010951;28;20029;-33
2021/08/30 10:29:41;;;;;;;8.48;7.00;;;;;;;26.78;38.72;96592.84;5013979;28;20056;-33
2021/08/30 10:32:09;;;;;;;10.00;6.90;;;;;;;26.64;38.99;96593.66;5013910;28;20112;-29
2021/08/30 10:34:35;;;;;;;30.02;7.60;;;;;;;26.52;39.21;96595.25;5007342;28;20036;-29
2021/08/30 10:37:02;;;;;;;20.05;6.60;;;;;;;26.46;39.27;96590.34;5009825;28;20035;-28
2021/08/30 10:39:41;;;;;;;17.88;6.63;;;;;;;26.41;39.49;96593.25;5009309;28;20052;-32
2021/08/30 10:42:09;;;;;;;17.38;6.00;;;;;;;26.41;39.48;96592.38;4992476;28;20043;-33
2021/08/30 10:44:35;;;;;;;19.23;5.90;;;;;;;26.40;39.60;96596.81;5007979;28;20659;-30
2021/08/30 10:47:10;;;;;;;16.70;5.85;;;;;;;26.41;39.57;96593.25;5007210;28;20053;-34
2021/08/30 10:49:36;;;;;;;9.30;5.25;;;;;;;26.46;39.65;96603.47;5011032;28;20736;-31
2021/08/30 10:52:11;;;;;;;9.30;4.93;;;;;;;26.50;39.67;96612.88;5004237;28;20143;-35
2021/08/30 10:54:47;;;;;;;9.68;4.85;;;;;;;26.53;39.67;96610.06;5002131;28;20040;-34
2021/08/30 10:57:13;;;;;;;9.30;4.75;;;;;;;26.56;39.52;96612.53;5005066;28;20029;-37
2021/08/30 10:59:41;;;;;;;9.02;4.70;;;;;;;26.60;39.47;96611.41;5004506;28;20312;-32
2021/08/30 11:02:07;;;;;;;12.75;4.90;;;;;;;26.65;39.52;96605.84;5005478;28;20103;-29
2021/08/30 11:04:35;;;;;;;7.95;5.10;;;;;;;26.68;39.36;96599.56;5008968;28;20033;-32
2021/08/30 11:07:00;;;;;;;6.63;4.40;;;;;;;26.72;39.40;96608.97;5006051;28;20029;-29
2021/08/30 11:09:26;;;;;;;10.55;4.45;;;;;;;26.74;39.43;96604.47;5003403;28;20040;-31
2021/08/30 11:11:51;;;;;;;6.57;4.47;;;;;;;26.77;39.39;96609.53;5002580;28;20102;-31
2021/08/30 11:14:17;;;;;;;6.38;4.40;;;;;;;26.80;39.40;96609.34;5005502;28;20044;-32
2021/08/30 11:16:42;;;;;;;6.70;4.57;;;;;;;26.83;39.44;96608.31;5005314;28;20500;-32
2021/08/30 11:19:10;;;;;;;5.57;4.18;;;;;;;26.85;39.38;96607.28;5005715;28;20057;-33
2021/08/30 11:21:46;;;;;;;7.32;4.80;;;;;;;26.87;39.35;96617.72;5009835;28;20030;-31
2021/08/30 11:24:28;;;;;;;6.28;4.55;;;;;;;26.87;39.49;96610.69;5009426;28;20029;-33
2021/08/30 11:26:55;;;;;;;6.35;3.85;;;;;;;26.91;39.44;96618.38;5005640;28;20549;-34
2021/08/30 11:29:21;;;;;;;5.28;4.05;;;;;;;26.93;39.23;96613.88;5004450;28;20045;-33
2021/08/30 11:31:46;;;;;;;5.30;3.97;;;;;;;26.94;39.20;96612.94;5002689;28;21009;-36
2021/08/30 11:34:28;;;;;;;5.35;3.90;;;;;;;26.94;39.47;96610.31;5005179;28;20091;-33